createdAt,value
2018-02-21T00:00:47.047Z,0.00
2018-02-21T00:01:47.043Z,0.00
2018-02-21T00:02:47.053Z,0.00
2018-02-21T00:03:47.057Z,0.00
2018-02-21T00:04:47.053Z,0.00
2018-02-21T00:05:47.048Z,0.00
2018-02-21T00:06:47.052Z,4.00
2018-02-21T00:07:47.048Z,0.00
2018-02-21T00:08:48.006Z,0.00
2018-02-21T00:09:47.052Z,0.00
2018-02-21T00:10:47.061Z,0.00
2018-02-21T00:11:47.057Z,0.00
2018-02-21T00:12:47.053Z,0.00
2018-02-21T00:13:47.056Z,0.00
2018-02-21T00:14:47.053Z,0.00
2018-02-21T00:15:47.055Z,0.00
2018-02-21T00:16:47.053Z,0.00
2018-02-21T00:17:47.057Z,0.00
2018-02-21T00:18:47.059Z,0.00
2018-02-21T00:19:47.057Z,0.00
2018-02-21T00:20:47.052Z,0.00
2018-02-21T00:21:47.056Z,0.00
2018-02-21T00:22:47.057Z,0.00
2018-02-21T00:23:47.058Z,0.00
2018-02-21T00:24:47.057Z,0.00
2018-02-21T00:25:47.077Z,0.00
2018-02-21T00:26:47.062Z,0.00
2018-02-21T00:27:47.059Z,0.00
2018-02-21T00:28:47.058Z,0.00
2018-02-21T00:29:47.056Z,0.00
2018-02-21T00:30:47.061Z,0.00
2018-02-21T00:31:47.061Z,0.00
2018-02-21T00:32:47.062Z,0.00
2018-02-21T00:33:47.071Z,0.00
2018-02-21T00:34:47.060Z,0.00
2018-02-21T00:35:47.060Z,0.00
2018-02-21T00:36:47.067Z,0.00
2018-02-21T00:37:47.060Z,0.00
2018-02-21T00:38:47.062Z,0.00
2018-02-21T00:39:47.082Z,0.00
2018-02-21T00:40:47.072Z,0.00
2018-02-21T00:41:47.061Z,0.00
2018-02-21T00:42:47.058Z,0.00
2018-02-21T00:43:47.076Z,0.00
2018-02-21T00:44:47.062Z,0.00
2018-02-21T00:45:47.066Z,0.00
2018-02-21T00:46:47.066Z,0.00
2018-02-21T00:47:47.063Z,0.00
2018-02-21T00:48:47.064Z,0.00
2018-02-21T00:49:47.066Z,0.00
2018-02-21T00:50:47.063Z,0.00
2018-02-21T00:51:47.058Z,0.00
2018-02-21T00:52:47.068Z,0.00
2018-02-21T00:53:47.072Z,0.00
2018-02-21T00:54:47.065Z,0.00
2018-02-21T00:55:47.066Z,0.00
2018-02-21T00:56:47.073Z,0.00
2018-02-21T00:57:47.068Z,0.00
2018-02-21T00:58:47.063Z,0.00
2018-02-21T00:59:47.063Z,0.00
2018-02-21T01:00:47.066Z,0.00
2018-02-21T01:01:47.067Z,0.00
2018-02-21T01:02:47.064Z,0.00
2018-02-21T01:03:47.068Z,0.00
2018-02-21T01:04:47.076Z,0.00
2018-02-21T01:05:47.066Z,0.00
2018-02-21T01:06:47.071Z,0.00
2018-02-21T01:07:47.087Z,0.00
2018-02-21T01:08:47.066Z,0.00
2018-02-21T01:10:40.000Z,0.00
2018-02-21T01:11:39.970Z,0.00
2018-02-21T01:13:32.946Z,0.00
2018-02-21T01:14:32.925Z,4.00
2018-02-21T01:16:25.888Z,0.00
2018-02-21T01:17:25.882Z,0.00
2018-02-21T01:19:18.864Z,0.00
2018-02-21T01:20:18.838Z,0.00
2018-02-21T01:22:11.821Z,0.00
2018-02-21T01:23:11.793Z,0.00
2018-02-21T01:25:04.763Z,0.00
2018-02-21T01:26:04.752Z,0.00
2018-02-21T01:27:57.735Z,0.00
2018-02-21T01:28:57.713Z,0.00
2018-02-21T01:30:50.675Z,0.00
2018-02-21T01:31:50.675Z,0.00
2018-02-21T01:33:43.685Z,0.00
2018-02-21T01:34:43.629Z,0.00
2018-02-21T01:35:43.641Z,0.00
2018-02-21T01:36:43.625Z,0.00
2018-02-21T01:37:43.626Z,0.00
2018-02-21T01:38:43.627Z,0.00
2018-02-21T01:39:43.629Z,0.00
2018-02-21T01:40:43.624Z,0.00
2018-02-21T01:41:43.629Z,0.00
2018-02-21T01:42:43.625Z,0.00
2018-02-21T01:43:43.631Z,0.00
2018-02-21T01:44:43.629Z,0.00
2018-02-21T01:45:43.627Z,0.00
2018-02-21T01:46:43.626Z,0.00
2018-02-21T01:47:43.630Z,0.00
2018-02-21T01:48:43.631Z,0.00
2018-02-21T01:49:43.629Z,0.00
2018-02-21T01:50:43.627Z,4.00
2018-02-21T01:51:43.639Z,0.00
2018-02-21T01:52:43.634Z,0.00
2018-02-21T01:53:43.627Z,0.00
2018-02-21T01:54:43.631Z,0.00
2018-02-21T01:55:43.632Z,0.00
2018-02-21T01:56:43.629Z,0.00
2018-02-21T01:57:43.626Z,0.00
2018-02-21T01:58:43.627Z,0.00
2018-02-21T01:59:43.633Z,0.00
2018-02-21T02:00:43.628Z,0.00
2018-02-21T02:01:43.628Z,0.00
2018-02-21T02:02:43.630Z,0.00
2018-02-21T02:03:43.628Z,0.00
2018-02-21T02:04:43.635Z,0.00
2018-02-21T02:05:43.631Z,0.00
2018-02-21T02:06:43.629Z,0.00
2018-02-21T02:07:43.632Z,0.00
2018-02-21T02:08:43.634Z,0.00
2018-02-21T02:09:43.634Z,0.00
2018-02-21T02:10:43.638Z,0.00
2018-02-21T02:11:43.627Z,0.00
2018-02-21T02:12:43.631Z,0.00
2018-02-21T02:13:43.636Z,0.00
2018-02-21T02:14:43.634Z,0.00
2018-02-21T02:15:43.635Z,0.00
2018-02-21T02:16:43.633Z,0.00
2018-02-21T02:17:43.627Z,0.00
2018-02-21T02:18:43.630Z,0.00
2018-02-21T02:19:43.639Z,0.00
2018-02-21T02:20:43.633Z,0.00
2018-02-21T02:21:43.629Z,0.00
2018-02-21T02:22:43.632Z,0.00
2018-02-21T02:23:43.633Z,0.00
2018-02-21T02:24:43.643Z,0.00
2018-02-21T02:25:43.631Z,0.00
2018-02-21T02:26:43.628Z,0.00
2018-02-21T02:27:43.638Z,0.00
2018-02-21T02:28:43.634Z,0.00
2018-02-21T02:29:43.628Z,0.00
2018-02-21T02:30:43.630Z,0.00
2018-02-21T02:31:43.635Z,0.00
2018-02-21T02:32:43.631Z,0.00
2018-02-21T02:33:43.634Z,0.00
2018-02-21T02:34:43.626Z,0.00
2018-02-21T02:35:43.633Z,0.00
2018-02-21T02:36:43.630Z,0.00
2018-02-21T02:37:43.634Z,0.00
2018-02-21T02:38:43.637Z,0.00
2018-02-21T02:39:43.634Z,0.00
2018-02-21T02:40:43.635Z,0.00
2018-02-21T02:41:43.636Z,0.00
2018-02-21T02:42:43.633Z,0.00
2018-02-21T02:43:43.633Z,0.00
2018-02-21T02:44:43.634Z,0.00
2018-02-21T02:45:43.633Z,0.00
2018-02-21T02:46:43.628Z,0.00
2018-02-21T02:47:43.638Z,0.00
2018-02-21T02:48:43.641Z,0.00
2018-02-21T02:49:43.629Z,0.00
2018-02-21T02:50:43.635Z,0.00
2018-02-21T02:51:43.632Z,0.00
2018-02-21T02:52:43.636Z,0.00
2018-02-21T02:53:43.653Z,0.00
2018-02-21T02:54:46.054Z,0.00
2018-02-21T02:55:43.632Z,0.00
2018-02-21T02:56:43.637Z,0.00
2018-02-21T02:57:43.641Z,0.00
2018-02-21T02:58:43.639Z,0.00
2018-02-21T02:59:43.644Z,0.00
2018-02-21T03:00:43.640Z,0.00
2018-02-21T03:01:43.635Z,0.00
2018-02-21T03:02:43.637Z,0.00
2018-02-21T03:03:43.640Z,0.00
2018-02-21T03:04:43.637Z,0.00
2018-02-21T03:05:43.635Z,0.00
2018-02-21T03:06:43.635Z,0.00
2018-02-21T03:07:43.640Z,0.00
2018-02-21T03:08:43.632Z,0.00
2018-02-21T03:09:43.639Z,0.00
2018-02-21T03:10:43.636Z,0.00
2018-02-21T03:11:43.642Z,0.00
2018-02-21T03:12:43.638Z,0.00
2018-02-21T03:13:43.640Z,0.00
2018-02-21T03:14:43.636Z,0.00
2018-02-21T03:15:43.635Z,0.00
2018-02-21T03:16:43.639Z,0.00
2018-02-21T03:17:43.633Z,0.00
2018-02-21T03:18:43.638Z,0.00
2018-02-21T03:19:43.646Z,0.00
2018-02-21T03:20:43.640Z,0.00
2018-02-21T03:21:43.633Z,0.00
2018-02-21T03:22:43.639Z,0.00
2018-02-21T03:23:43.634Z,0.00
2018-02-21T03:24:43.645Z,0.00
2018-02-21T03:25:43.634Z,0.00
2018-02-21T03:26:43.659Z,0.00
2018-02-21T03:27:43.640Z,0.00
2018-02-21T03:28:43.636Z,0.00
2018-02-21T03:29:43.641Z,0.00
2018-02-21T03:30:43.638Z,0.00
2018-02-21T03:31:43.640Z,0.00
2018-02-21T03:32:43.641Z,0.00
2018-02-21T03:33:43.641Z,0.00
2018-02-21T03:34:43.639Z,0.00
2018-02-21T03:35:43.642Z,0.00
2018-02-21T03:36:43.648Z,0.00
2018-02-21T03:37:43.635Z,0.00
2018-02-21T03:38:43.636Z,0.00
2018-02-21T03:39:43.643Z,0.00
2018-02-21T03:40:43.644Z,0.00
2018-02-21T03:41:43.635Z,0.00
2018-02-21T03:42:43.670Z,0.00
2018-02-21T03:43:43.642Z,0.00
2018-02-21T03:44:43.640Z,0.00
2018-02-21T03:45:43.638Z,0.00
2018-02-21T03:46:43.647Z,0.00
2018-02-21T03:47:43.636Z,0.00
2018-02-21T03:48:43.645Z,0.00
2018-02-21T03:49:43.638Z,0.00
2018-02-21T03:50:43.642Z,0.00
2018-02-21T03:51:43.642Z,0.00
2018-02-21T03:52:43.644Z,0.00
2018-02-21T03:53:43.641Z,0.00
2018-02-21T03:54:43.645Z,0.00
2018-02-21T03:55:43.637Z,0.00
2018-02-21T03:56:43.640Z,0.00
2018-02-21T03:57:43.642Z,0.00
2018-02-21T03:58:43.648Z,0.00
2018-02-21T03:59:43.660Z,0.00
2018-02-21T04:00:43.729Z,0.00
2018-02-21T04:01:43.641Z,0.00
2018-02-21T04:02:43.656Z,4.00
2018-02-21T04:03:43.643Z,0.00
2018-02-21T04:04:43.646Z,4.00
2018-02-21T04:05:43.648Z,0.00
2018-02-21T04:06:43.641Z,0.00
2018-02-21T04:07:43.641Z,0.00
2018-02-21T04:08:43.644Z,0.00
2018-02-21T04:09:43.642Z,0.00
2018-02-21T04:10:43.644Z,0.00
2018-02-21T04:11:43.643Z,0.00
2018-02-21T04:12:43.642Z,0.00
2018-02-21T04:13:43.642Z,0.00
2018-02-21T04:14:43.642Z,0.00
2018-02-21T04:15:43.647Z,0.00
2018-02-21T04:16:43.644Z,0.00
2018-02-21T04:17:43.639Z,0.00
2018-02-21T04:18:43.644Z,0.00
2018-02-21T04:19:43.648Z,0.00
2018-02-21T04:20:43.654Z,0.00
2018-02-21T04:21:43.653Z,0.00
2018-02-21T04:22:43.653Z,0.00
2018-02-21T04:23:43.686Z,0.00
2018-02-21T04:24:43.648Z,0.00
2018-02-21T04:25:45.596Z,0.00
2018-02-21T04:26:44.323Z,0.00
2018-02-21T04:27:44.803Z,0.00
2018-02-21T04:28:43.646Z,0.00
2018-02-21T04:29:43.650Z,0.00
2018-02-21T04:30:43.648Z,0.00
2018-02-21T04:31:43.641Z,0.00
2018-02-21T04:32:43.647Z,0.00
2018-02-21T04:33:43.644Z,0.00
2018-02-21T04:34:43.644Z,0.00
2018-02-21T04:35:43.645Z,0.00
2018-02-21T04:36:43.643Z,0.00
2018-02-21T04:37:43.641Z,0.00
2018-02-21T04:38:43.645Z,0.00
2018-02-21T04:39:43.647Z,0.00
2018-02-21T04:40:43.659Z,0.00
2018-02-21T04:41:43.642Z,0.00
2018-02-21T04:42:43.645Z,0.00
2018-02-21T04:43:43.651Z,0.00
2018-02-21T04:44:43.662Z,0.00
2018-02-21T04:45:43.648Z,0.00
2018-02-21T04:46:43.654Z,0.00
2018-02-21T04:47:43.647Z,0.00
2018-02-21T04:48:43.649Z,0.00
2018-02-21T04:49:43.643Z,0.00
2018-02-21T04:50:43.664Z,0.00
2018-02-21T04:51:43.642Z,0.00
2018-02-21T04:52:43.638Z,0.00
2018-02-21T04:53:43.643Z,0.00
2018-02-21T04:54:43.658Z,0.00
2018-02-21T04:55:43.649Z,0.00
2018-02-21T04:56:43.639Z,0.00
2018-02-21T04:57:43.644Z,0.00
2018-02-21T04:58:43.649Z,0.00
2018-02-21T04:59:43.645Z,0.00
2018-02-21T05:00:43.641Z,0.00
2018-02-21T05:01:43.643Z,0.00
2018-02-21T05:02:43.659Z,0.00
2018-02-21T05:03:43.648Z,0.00
2018-02-21T05:04:43.643Z,0.00
2018-02-21T05:05:43.646Z,0.00
2018-02-21T05:06:43.641Z,0.00
2018-02-21T05:07:43.647Z,0.00
2018-02-21T05:08:43.642Z,0.00
2018-02-21T05:09:43.651Z,0.00
2018-02-21T05:10:43.645Z,0.00
2018-02-21T05:11:43.649Z,4.00
2018-02-21T05:12:43.642Z,0.00
2018-02-21T05:13:43.639Z,4.00
2018-02-21T05:14:43.643Z,0.00
2018-02-21T05:15:43.639Z,0.00
2018-02-21T05:16:43.649Z,0.00
2018-02-21T05:17:43.646Z,0.00
2018-02-21T05:18:43.649Z,0.00
2018-02-21T05:19:43.648Z,0.00
2018-02-21T05:20:43.642Z,4.00
2018-02-21T05:21:43.643Z,0.00
2018-02-21T05:22:43.643Z,0.00
2018-02-21T05:23:43.639Z,4.00
2018-02-21T05:24:43.661Z,0.00
2018-02-21T05:25:43.640Z,0.00
2018-02-21T05:26:43.649Z,4.00
2018-02-21T05:27:43.638Z,0.00
2018-02-21T05:28:43.644Z,0.00
2018-02-21T05:29:43.674Z,0.00
2018-02-21T05:30:43.649Z,0.00
2018-02-21T05:31:43.649Z,0.00
2018-02-21T05:32:43.647Z,0.00
2018-02-21T05:33:43.641Z,0.00
2018-02-21T05:34:43.636Z,0.00
2018-02-21T05:35:43.644Z,4.00
2018-02-21T05:36:43.685Z,0.00
2018-02-21T05:37:43.648Z,0.00
2018-02-21T05:38:43.644Z,4.00
2018-02-21T05:39:43.645Z,0.00
2018-02-21T05:40:43.637Z,0.00
2018-02-21T05:41:43.644Z,4.00
2018-02-21T05:42:43.635Z,0.00
2018-02-21T05:43:43.639Z,4.00
2018-02-21T05:44:43.645Z,0.00
2018-02-21T05:45:43.639Z,0.00
2018-02-21T05:46:43.635Z,4.00
2018-02-21T05:47:43.640Z,4.00
2018-02-21T05:48:43.640Z,4.00
2018-02-21T05:49:43.636Z,0.00
2018-02-21T05:50:43.635Z,4.00
2018-02-21T05:51:43.637Z,0.00
2018-02-21T05:52:43.640Z,4.00
2018-02-21T05:53:43.630Z,4.00
2018-02-21T05:54:43.637Z,4.00
2018-02-21T05:55:43.637Z,4.00
2018-02-21T05:56:43.639Z,0.00
2018-02-21T05:57:43.638Z,0.00
2018-02-21T05:58:43.726Z,4.00
2018-02-21T05:59:43.637Z,0.00
2018-02-21T06:00:43.641Z,0.00
2018-02-21T06:01:43.650Z,4.00
2018-02-21T06:02:43.637Z,0.00
2018-02-21T06:03:43.635Z,4.00
2018-02-21T06:04:43.633Z,4.00
2018-02-21T06:05:43.637Z,8.00
2018-02-21T06:06:43.640Z,8.00
2018-02-21T06:07:43.659Z,8.00
2018-02-21T06:08:43.631Z,8.00
2018-02-21T06:09:43.661Z,8.00
2018-02-21T06:10:43.639Z,16.00
2018-02-21T06:11:43.631Z,16.00
2018-02-21T06:12:43.628Z,20.00
2018-02-21T06:13:43.631Z,20.00
2018-02-21T06:14:43.631Z,24.00
2018-02-21T06:15:43.628Z,24.00
2018-02-21T06:16:43.631Z,28.00
2018-02-21T06:17:43.626Z,36.00
2018-02-21T06:18:43.641Z,36.00
2018-02-21T06:19:43.629Z,44.00
2018-02-21T06:20:43.678Z,48.00
2018-02-21T06:21:43.632Z,56.00
2018-02-21T06:22:43.644Z,64.00
2018-02-21T06:23:43.628Z,76.00
2018-02-21T06:24:43.631Z,84.00
2018-02-21T06:25:43.636Z,92.00
2018-02-21T06:26:43.673Z,100.00
2018-02-21T06:27:43.642Z,112.00
2018-02-21T06:29:36.589Z,136.00
2018-02-21T06:30:36.569Z,144.00
2018-02-21T06:32:29.530Z,172.00
2018-02-21T06:33:29.522Z,184.00
2018-02-21T06:35:22.507Z,216.00
2018-02-21T06:36:22.483Z,232.00
2018-02-21T06:38:15.443Z,268.00
2018-02-21T06:39:15.442Z,288.00
2018-02-21T06:41:08.418Z,324.00
2018-02-21T06:42:08.399Z,340.00
2018-02-21T06:44:01.381Z,388.00
2018-02-21T06:45:01.351Z,416.00
2018-02-21T06:46:54.317Z,444.00
2018-02-21T06:47:54.313Z,468.00
2018-02-21T06:49:47.298Z,552.00
2018-02-21T06:50:47.276Z,624.00
2018-02-21T06:52:40.235Z,704.00
2018-02-21T06:53:40.223Z,744.00
2018-02-21T06:55:33.212Z,860.00
2018-02-21T06:56:33.183Z,908.00
2018-02-21T06:58:26.637Z,960.00
2018-02-21T06:59:26.141Z,992.00
2018-02-21T07:01:19.124Z,1048.00
2018-02-21T07:02:19.093Z,1112.00
2018-02-21T07:04:12.060Z,1328.00
2018-02-21T07:05:12.056Z,1476.00
2018-02-21T07:07:05.042Z,1688.00
2018-02-21T07:08:05.009Z,1768.00
2018-02-21T07:09:57.991Z,1912.00
2018-02-21T07:10:57.970Z,1976.00
2018-02-21T07:12:50.934Z,2112.00
2018-02-21T07:13:50.925Z,2172.00
2018-02-21T07:15:43.905Z,2312.00
2018-02-21T07:16:43.884Z,2396.00
2018-02-21T07:18:36.846Z,2492.00
2018-02-21T07:19:36.842Z,2568.00
2018-02-21T07:21:29.824Z,2724.00
2018-02-21T07:22:29.799Z,2788.00
2018-02-21T07:24:22.761Z,2908.00
2018-02-21T07:25:22.759Z,2972.00
2018-02-21T07:27:15.737Z,3100.00
2018-02-21T07:28:15.708Z,3180.00
2018-02-21T07:30:08.704Z,3304.00
2018-02-21T07:31:08.667Z,3384.00
2018-02-21T07:33:01.623Z,3496.00
2018-02-21T07:34:01.624Z,3560.00
2018-02-21T07:35:54.606Z,3696.00
2018-02-21T07:36:54.580Z,3764.00
2018-02-21T07:38:47.546Z,3912.00
2018-02-21T07:39:47.540Z,4004.00
2018-02-21T07:41:40.520Z,4176.00
2018-02-21T07:42:40.550Z,4272.00
2018-02-21T07:44:33.458Z,4404.00
2018-02-21T07:45:33.453Z,4472.00
2018-02-21T07:47:26.441Z,4596.00
2018-02-21T07:48:26.411Z,4652.00
2018-02-21T07:50:19.387Z,4780.00
2018-02-21T07:51:19.372Z,4856.00
2018-02-21T07:53:12.353Z,4944.00
2018-02-21T07:54:12.327Z,4984.00
2018-02-21T07:56:05.309Z,5148.00
2018-02-21T07:57:05.284Z,5260.00
2018-02-21T07:58:58.240Z,5396.00
2018-02-21T07:59:58.243Z,5428.00
2018-02-21T08:01:51.220Z,5512.00
2018-02-21T08:02:51.199Z,5560.00
2018-02-21T08:04:44.162Z,5764.00
2018-02-21T08:05:44.158Z,8344.00
2018-02-21T08:07:37.635Z,30432.00
2018-02-21T08:08:37.115Z,40192.00
2018-02-21T08:10:30.075Z,35296.00
2018-02-21T08:11:30.072Z,34208.00
2018-02-21T08:13:23.052Z,32544.00
2018-02-21T08:14:23.028Z,33344.00
2018-02-21T08:16:16.057Z,41632.00
2018-02-21T08:17:15.987Z,44064.00
2018-02-21T08:18:15.988Z,44672.00
2018-02-21T08:19:15.994Z,46944.00
2018-02-21T08:20:16.004Z,47104.00
2018-02-21T08:21:16.003Z,47424.00
2018-02-21T08:22:16.006Z,47072.00
2018-02-21T08:23:16.012Z,47680.00
2018-02-21T08:24:16.018Z,47072.00
2018-02-21T08:25:16.020Z,45472.00
2018-02-21T08:26:16.029Z,43648.00
2018-02-21T08:27:16.029Z,43680.00
2018-02-21T08:28:16.141Z,42880.00
2018-02-21T08:29:16.040Z,43104.00
2018-02-21T08:30:16.046Z,45568.00
2018-02-21T08:31:16.055Z,47712.00
2018-02-21T08:32:16.077Z,49504.00
2018-02-21T08:33:16.131Z,48960.00
2018-02-21T08:34:16.121Z,47744.00
2018-02-21T08:35:16.139Z,48256.00
2018-02-21T08:36:16.081Z,50240.00
2018-02-21T08:37:16.143Z,49984.00
2018-02-21T08:38:16.101Z,49280.00
2018-02-21T08:39:16.162Z,50208.00
2018-02-21T08:40:16.143Z,51136.00
2018-02-21T08:41:16.168Z,51808.00
2018-02-21T08:42:16.180Z,51296.00
2018-02-21T08:43:16.181Z,50784.00
2018-02-21T08:44:16.182Z,50624.00
2018-02-21T08:45:16.191Z,52288.00
2018-02-21T08:46:16.208Z,52320.00
2018-02-21T08:47:16.202Z,52288.00
2018-02-21T08:48:16.227Z,52224.00
2018-02-21T08:49:16.226Z,53632.00
2018-02-21T08:50:16.239Z,54112.00
2018-02-21T08:51:16.275Z,48448.00
2018-02-21T08:52:16.281Z,39136.00
2018-02-21T08:53:16.300Z,31136.00
2018-02-21T08:54:16.285Z,25600.00
2018-02-21T08:55:16.239Z,23648.00
2018-02-21T08:56:16.253Z,23008.00
2018-02-21T08:57:16.262Z,22592.00
2018-02-21T08:58:16.266Z,22560.00
2018-02-21T08:59:16.280Z,22848.00
2018-02-21T09:00:16.292Z,22656.00
2018-02-21T09:01:16.304Z,22624.00
2018-02-21T09:02:16.311Z,22592.00
2018-02-21T09:03:16.320Z,22784.00
2018-02-21T09:04:16.335Z,22720.00
2018-02-21T09:05:16.347Z,22944.00
2018-02-21T09:06:16.349Z,23296.00
2018-02-21T09:07:16.361Z,23488.00
2018-02-21T09:08:16.377Z,23520.00
2018-02-21T09:09:16.385Z,23456.00
2018-02-21T09:10:16.396Z,23648.00
2018-02-21T09:11:16.406Z,23680.00
2018-02-21T09:12:16.421Z,23936.00
2018-02-21T09:13:16.428Z,23936.00
2018-02-21T09:14:16.460Z,24192.00
2018-02-21T09:15:16.456Z,24224.00
2018-02-21T09:16:16.467Z,23872.00
2018-02-21T09:17:16.533Z,24256.00
2018-02-21T09:18:16.491Z,24480.00
2018-02-21T09:19:16.729Z,24576.00
2018-02-21T09:20:16.507Z,24352.00
2018-02-21T09:21:16.525Z,24192.00
2018-02-21T09:22:16.531Z,24352.00
2018-02-21T09:23:16.605Z,24256.00
2018-02-21T09:24:16.557Z,24416.00
2018-02-21T09:25:16.571Z,24320.00
2018-02-21T09:26:16.579Z,24416.00
2018-02-21T09:27:16.589Z,24416.00
2018-02-21T09:28:16.604Z,24704.00
2018-02-21T09:29:16.616Z,24544.00
2018-02-21T09:30:16.621Z,24672.00
2018-02-21T09:31:16.633Z,25184.00
2018-02-21T09:32:16.651Z,25728.00
2018-02-21T09:33:16.664Z,25536.00
2018-02-21T09:34:16.670Z,25984.00
2018-02-21T09:35:16.679Z,26496.00
2018-02-21T09:36:16.695Z,27104.00
2018-02-21T09:37:16.701Z,27488.00
2018-02-21T09:38:16.714Z,28448.00
2018-02-21T09:39:16.732Z,29856.00
2018-02-21T09:40:16.738Z,31936.00
2018-02-21T09:41:16.751Z,33536.00
2018-02-21T09:42:16.761Z,34752.00
2018-02-21T09:43:16.780Z,38048.00
2018-02-21T09:44:16.788Z,41408.00
2018-02-21T09:45:16.800Z,43456.00
2018-02-21T09:46:16.808Z,42720.00
2018-02-21T09:47:16.827Z,41568.00
2018-02-21T09:48:16.860Z,39584.00
2018-02-21T09:49:16.847Z,38912.00
2018-02-21T09:50:16.857Z,37632.00
2018-02-21T09:51:16.872Z,37984.00
2018-02-21T09:52:16.879Z,37248.00
2018-02-21T09:53:16.890Z,34144.00
2018-02-21T09:54:16.912Z,33280.00
2018-02-21T09:55:16.918Z,33536.00
2018-02-21T09:56:16.932Z,34656.00
2018-02-21T09:57:16.943Z,36320.00
2018-02-21T09:58:16.956Z,34432.00
2018-02-21T09:59:16.963Z,34784.00
2018-02-21T10:00:16.990Z,33472.00
2018-02-21T10:01:16.993Z,32608.00
2018-02-21T10:02:17.006Z,32192.00
2018-02-21T10:03:17.012Z,32032.00
2018-02-21T10:04:17.029Z,32288.00
2018-02-21T10:05:17.039Z,31072.00
2018-02-21T10:06:17.061Z,31136.00
2018-02-21T10:07:17.063Z,30976.00
2018-02-21T10:08:17.116Z,29696.00
2018-02-21T10:09:17.089Z,29440.00
2018-02-21T10:10:17.097Z,28512.00
2018-02-21T10:11:17.109Z,27552.00
2018-02-21T10:12:17.130Z,27296.00
2018-02-21T10:13:17.136Z,27200.00
2018-02-21T10:14:17.144Z,27840.00
2018-02-21T10:15:17.163Z,28096.00
2018-02-21T10:16:17.173Z,28672.00
2018-02-21T10:17:17.184Z,27584.00
2018-02-21T10:18:17.191Z,27680.00
2018-02-21T10:19:17.223Z,27264.00
2018-02-21T10:20:17.226Z,27680.00
2018-02-21T10:21:17.229Z,28448.00
2018-02-21T10:22:17.238Z,28800.00
2018-02-21T10:23:17.248Z,29344.00
2018-02-21T10:24:17.261Z,27872.00
2018-02-21T10:25:17.273Z,27136.00
2018-02-21T10:26:17.284Z,27712.00
2018-02-21T10:27:17.297Z,27744.00
2018-02-21T10:28:17.306Z,28992.00
2018-02-21T10:29:17.319Z,28960.00
2018-02-21T10:30:17.328Z,28896.00
2018-02-21T10:31:17.337Z,29088.00
2018-02-21T10:32:17.347Z,29728.00
2018-02-21T10:33:17.360Z,30208.00
2018-02-21T10:34:17.377Z,30912.00
2018-02-21T10:35:17.391Z,31904.00
2018-02-21T10:36:17.393Z,32480.00
2018-02-21T10:37:17.403Z,32928.00
2018-02-21T10:38:17.432Z,33376.00
2018-02-21T10:39:17.425Z,34912.00
2018-02-21T10:40:17.436Z,38048.00
2018-02-21T10:41:17.449Z,39456.00
2018-02-21T10:42:17.459Z,40992.00
2018-02-21T10:43:17.474Z,41952.00
2018-02-21T10:44:17.483Z,42144.00
2018-02-21T10:45:17.491Z,47424.00
2018-02-21T10:46:17.502Z,50496.00
2018-02-21T10:47:17.516Z,50208.00
2018-02-21T10:48:17.522Z,47936.00
2018-02-21T10:49:17.534Z,44512.00
2018-02-21T10:50:17.597Z,38144.00
2018-02-21T10:51:17.599Z,35584.00
2018-02-21T10:52:17.609Z,35424.00
2018-02-21T10:53:17.651Z,30048.00
2018-02-21T10:54:17.637Z,28992.00
2018-02-21T10:55:17.609Z,27200.00
2018-02-21T10:56:17.656Z,25312.00
2018-02-21T10:57:17.623Z,24576.00
2018-02-21T10:58:17.657Z,23232.00
2018-02-21T10:59:17.685Z,22592.00
2018-02-21T11:00:17.651Z,21760.00
2018-02-21T11:01:17.658Z,20960.00
2018-02-21T11:02:17.668Z,20032.00
2018-02-21T11:03:18.572Z,19072.00
2018-02-21T11:04:17.736Z,19360.00
2018-02-21T11:05:17.790Z,18688.00
2018-02-21T11:06:17.854Z,18336.00
2018-02-21T11:07:17.786Z,17344.00
2018-02-21T11:08:17.840Z,17312.00
2018-02-21T11:09:17.849Z,17120.00
2018-02-21T11:10:17.889Z,15388.00
2018-02-21T11:11:17.860Z,16352.00
2018-02-21T11:12:17.859Z,15936.00
2018-02-21T11:13:17.885Z,14976.00
2018-02-21T11:14:17.845Z,14720.00
2018-02-21T11:15:17.864Z,14760.00
2018-02-21T11:16:17.850Z,14772.00
2018-02-21T11:17:17.871Z,14744.00
2018-02-21T11:18:17.902Z,14280.00
2018-02-21T11:19:17.821Z,14172.00
2018-02-21T11:20:18.544Z,13956.00
2018-02-21T11:21:17.833Z,13488.00
2018-02-21T11:22:17.842Z,13428.00
2018-02-21T11:23:17.855Z,12956.00
2018-02-21T11:24:17.859Z,13296.00
2018-02-21T11:25:17.864Z,12608.00
2018-02-21T11:26:17.876Z,12356.00
2018-02-21T11:27:17.883Z,12820.00
2018-02-21T11:28:17.894Z,12396.00
2018-02-21T11:29:17.895Z,12372.00
2018-02-21T11:30:17.950Z,12240.00
2018-02-21T11:31:17.913Z,12036.00
2018-02-21T11:32:17.923Z,11848.00
2018-02-21T11:33:17.927Z,11620.00
2018-02-21T11:34:17.936Z,11812.00
2018-02-21T11:35:17.943Z,11688.00
2018-02-21T11:36:17.954Z,11652.00
2018-02-21T11:37:17.960Z,11488.00
2018-02-21T11:38:17.971Z,11536.00
2018-02-21T11:39:17.972Z,11036.00
2018-02-21T11:40:17.991Z,11204.00
2018-02-21T11:41:17.986Z,11232.00
2018-02-21T11:42:17.995Z,10780.00
2018-02-21T11:43:18.001Z,11000.00
2018-02-21T11:44:18.012Z,9916.00
2018-02-21T11:45:18.015Z,10596.00
2018-02-21T11:46:18.020Z,10188.00
2018-02-21T11:47:18.035Z,10516.00
2018-02-21T11:48:18.039Z,10428.00
2018-02-21T11:49:18.089Z,9752.00
2018-02-21T11:50:18.043Z,8456.00
2018-02-21T11:51:18.057Z,9984.00
2018-02-21T11:52:18.061Z,9820.00
2018-02-21T11:53:18.073Z,9612.00
2018-02-21T11:54:18.075Z,9620.00
2018-02-21T11:55:18.130Z,9484.00
2018-02-21T11:56:18.095Z,9452.00
2018-02-21T11:57:18.128Z,9456.00
2018-02-21T11:58:18.107Z,9616.00
2018-02-21T11:59:18.146Z,9568.00
2018-02-21T12:00:18.109Z,9400.00
2018-02-21T12:01:18.114Z,9388.00
2018-02-21T12:02:18.125Z,9496.00
2018-02-21T12:03:18.129Z,9404.00
2018-02-21T12:04:18.137Z,9320.00
2018-02-21T12:05:18.142Z,9188.00
2018-02-21T12:06:18.147Z,8992.00
2018-02-21T12:07:18.149Z,9028.00
2018-02-21T12:08:18.158Z,8820.00
2018-02-21T12:09:18.160Z,8776.00
2018-02-21T12:10:18.173Z,8544.00
2018-02-21T12:11:18.176Z,8616.00
2018-02-21T12:12:18.218Z,8800.00
2018-02-21T12:13:18.185Z,8724.00
2018-02-21T12:14:18.189Z,8796.00
2018-02-21T12:15:18.193Z,8188.00
2018-02-21T12:16:18.207Z,6440.00
2018-02-21T12:17:18.201Z,5720.00
2018-02-21T12:18:18.208Z,5980.00
2018-02-21T12:19:18.212Z,5820.00
2018-02-21T12:20:18.219Z,5160.00
2018-02-21T12:21:18.226Z,5788.00
2018-02-21T12:22:18.231Z,5648.00
2018-02-21T12:23:18.237Z,5700.00
2018-02-21T12:24:18.238Z,5616.00
2018-02-21T12:25:18.245Z,5112.00
2018-02-21T12:26:18.252Z,5252.00
2018-02-21T12:27:18.256Z,5792.00
2018-02-21T12:28:18.263Z,5952.00
2018-02-21T12:29:18.266Z,5012.00
2018-02-21T12:30:18.270Z,5196.00
2018-02-21T12:31:18.272Z,5768.00
2018-02-21T12:32:18.277Z,5292.00
2018-02-21T12:33:18.280Z,6188.00
2018-02-21T12:34:18.291Z,6048.00
2018-02-21T12:35:18.289Z,5680.00
2018-02-21T12:36:18.301Z,5880.00
2018-02-21T12:37:18.300Z,5988.00
2018-02-21T12:38:18.308Z,5816.00
2018-02-21T12:39:18.310Z,5836.00
2018-02-21T12:40:18.320Z,5816.00
2018-02-21T12:41:18.318Z,5512.00
2018-02-21T12:42:18.325Z,5924.00
2018-02-21T12:43:18.328Z,5904.00
2018-02-21T12:44:18.332Z,5752.00
2018-02-21T12:45:18.336Z,5212.00
2018-02-21T12:46:18.346Z,5528.00
2018-02-21T12:47:18.345Z,5384.00
2018-02-21T12:48:18.356Z,5172.00
2018-02-21T12:49:18.357Z,4968.00
2018-02-21T12:50:18.374Z,4656.00
2018-02-21T12:51:18.365Z,5004.00
2018-02-21T12:52:19.074Z,5212.00
2018-02-21T12:53:18.373Z,5132.00
2018-02-21T12:54:18.377Z,4792.00
2018-02-21T12:55:18.378Z,4624.00
2018-02-21T12:56:18.385Z,4880.00
2018-02-21T12:57:18.389Z,4768.00
2018-02-21T12:58:18.388Z,4700.00
2018-02-21T12:59:18.426Z,4712.00
2018-02-21T13:00:18.404Z,4632.00
2018-02-21T13:01:18.405Z,4748.00
2018-02-21T13:02:18.405Z,4348.00
2018-02-21T13:03:18.410Z,4728.00
2018-02-21T13:04:18.417Z,4332.00
2018-02-21T13:05:18.426Z,4340.00
2018-02-21T13:06:18.422Z,4312.00
2018-02-21T13:07:18.438Z,4020.00
2018-02-21T13:08:18.435Z,4320.00
2018-02-21T13:09:18.439Z,4384.00
2018-02-21T13:10:18.436Z,4576.00
2018-02-21T13:11:18.438Z,4344.00
2018-02-21T13:12:18.446Z,4376.00
2018-02-21T13:13:18.451Z,4116.00
2018-02-21T13:14:18.450Z,4340.00
2018-02-21T13:15:18.455Z,4396.00